Airfield :
LOGIN :

Register | Disclaimer

   EN    FR    IT 

 










Legend :    VFR   Marginal VFR   IFR   Intensive IFR   Very Intensive IFR
Visi :
Ceiling :
>= 8 km
>= 3000ft
5 to 8 km
1000 to 3000 ft
1500m to 5 km
500 to 1000 ft
800 to 1500m
200 to 500 ft
< 800m
< 200 ft
Symbols :   Thunderstorms  Fog  Heavy snow  Heavy precipitations  Wind > 20 kt
SIGMETs :     Misc.  Thunderstorms  Icing  Turbulence  Mountain Waves  Volcanic Ashes







- Airport Elevation : 423 ft
- IATA code : PIS
- Download approach charts


LFBI - Poitiers

CURRENT METAR :
  • 200600Z AUTO 32004KT 4700 BR BKN005 OVC074 12/11 Q1012 BECMG 9999 NSW BKN015

EXPIRED METARs :
  • 200530Z AUTO 31004KT 4200 BR BKN005 OVC058 11/10 Q1011 BECMG 9999 NSW BKN015
  • 200500Z AUTO 31005KT 4000 BR OVC004 11/11 Q1011 BECMG 6000 NSW BKN010
  • 200430Z AUTO 31004KT 4600 BR OVC005 11/11 Q1011 BECMG 9999 NSW BKN010
  • 200400Z AUTO 31006KT 6000 SCT026 SCT045 OVC052 11/10 Q1011 BECMG BKN010
  • 200330Z AUTO 29005KT 6000 FEW006 OVC049 11/10 Q1011 BECMG BKN010

TAF TAF LFBI
Valid from the 20 at 06:00 until the 21 at 06:00 UTC


200500Z 2006/2106 29005KT 9999 BKN014
BECMG 2007/2009 BKN015
BECMG 2009/2011 OVC035
TEMPO 2012/2018 4000 SHRA BKN035TCU
No reported NOTAMs for that airfield.



MET'MAP, your aeronautical weather chart ! - Copyright ORBIFLY December 2007 - Disclaimer

ORBIFLY MET'MAP TEAM :

Programming & Development : Alexandra Zaïnal
Concept & Development : Baudouin d'Aumeries
Co-Development & Prog : Marc-Olivier Méhu
Technical & hardware support : Manuel Goepfert

Contact : metmap@orbifly.com




SOURCES & CREDITS :

   NOAA